createdAt,value
2022-10-18T00:01:08.825Z,9.60
2022-10-18T00:06:11.210Z,9.30
2022-10-18T00:08:39.936Z,10.10
2022-10-18T00:11:08.177Z,9.20
2022-10-18T00:13:37.077Z,9.30
2022-10-18T00:16:10.154Z,9.70
2022-10-18T00:18:38.120Z,10.60
2022-10-18T00:21:09.959Z,11.30
2022-10-18T00:23:38.051Z,12.70
2022-10-18T00:26:11.857Z,11.30
2022-10-18T00:28:41.089Z,11.30
2022-10-18T00:31:27.456Z,11.40
2022-10-18T00:33:58.292Z,12.70
2022-10-18T00:36:29.003Z,13.70
2022-10-18T00:38:57.899Z,14.90
2022-10-18T00:41:31.006Z,16.20
2022-10-18T00:44:26.728Z,18.80
2022-10-18T00:47:08.724Z,19.90
2022-10-18T00:49:42.734Z,19.10
2022-10-18T00:52:35.791Z,13.50
2022-10-18T00:55:06.498Z,12.30
2022-10-18T00:57:35.501Z,13.40
2022-10-18T01:00:09.865Z,13.20
2022-10-18T01:02:40.366Z,11.10
2022-10-18T01:05:10.916Z,11.30
2022-10-18T01:08:28.425Z,10.60
2022-10-18T01:11:05.303Z,9.80
2022-10-18T01:13:52.116Z,9.40
2022-10-18T01:16:32.781Z,9.00
2022-10-18T01:19:16.109Z,8.70
2022-10-18T01:21:54.528Z,9.00
2022-10-18T01:25:00.793Z,9.00
2022-10-18T01:28:13.610Z,8.90
2022-10-18T01:30:50.592Z,8.90
2022-10-18T01:33:43.960Z,8.70
2022-10-18T01:36:15.101Z,8.60
2022-10-18T01:38:45.081Z,9.10
2022-10-18T01:41:16.172Z,9.70
2022-10-18T01:43:46.994Z,8.30
2022-10-18T01:46:20.387Z,8.90
2022-10-18T01:48:49.380Z,8.60
2022-10-18T01:51:29.023Z,8.40
2022-10-18T01:53:57.301Z,8.90
2022-10-18T01:56:28.770Z,9.20
2022-10-18T01:59:34.709Z,8.50
2022-10-18T02:02:08.720Z,8.60
2022-10-18T02:04:51.846Z,7.80
2022-10-18T02:07:34.560Z,7.70
2022-10-18T02:12:51.695Z,7.90
2022-10-18T02:15:38.301Z,8.00
2022-10-18T02:18:12.515Z,8.50
2022-10-18T02:20:40.487Z,7.40
2022-10-18T02:23:10.911Z,7.20
2022-10-18T02:25:39.393Z,7.60
2022-10-18T02:28:07.685Z,7.70
2022-10-18T02:30:44.853Z,7.50
2022-10-18T02:33:31.667Z,8.50
2022-10-18T02:36:24.107Z,8.20
2022-10-18T02:38:56.376Z,8.90
2022-10-18T02:41:27.007Z,9.50
2022-10-18T02:43:55.079Z,9.40
2022-10-18T02:46:23.826Z,9.10
2022-10-18T02:48:52.041Z,9.60
2022-10-18T02:51:20.112Z,8.70
2022-10-18T02:53:48.082Z,6.80
2022-10-18T02:56:16.869Z,7.50
2022-10-18T02:58:44.941Z,7.40
2022-10-18T03:01:13.074Z,7.50
2022-10-18T03:03:41.186Z,7.40
2022-10-18T03:06:09.461Z,6.90
2022-10-18T03:08:38.045Z,7.90
2022-10-18T03:11:06.427Z,7.80
2022-10-18T03:13:34.626Z,8.60
2022-10-18T03:16:02.876Z,7.00
2022-10-18T03:18:31.048Z,8.10
2022-10-18T03:21:03.830Z,7.70
2022-10-18T03:23:31.901Z,7.90
2022-10-18T03:25:59.975Z,6.90
2022-10-18T03:28:28.136Z,7.10
2022-10-18T03:31:04.603Z,8.00
2022-10-18T03:33:33.400Z,7.00
2022-10-18T03:36:01.476Z,7.10
2022-10-18T03:38:29.443Z,7.30
2022-10-18T03:40:57.515Z,7.30
2022-10-18T03:43:25.483Z,7.50
2022-10-18T03:45:53.554Z,7.50
2022-10-18T03:48:21.525Z,7.40
2022-10-18T03:50:49.492Z,7.50
2022-10-18T03:53:17.568Z,9.10
2022-10-18T03:55:45.532Z,7.80
2022-10-18T03:58:13.605Z,6.80
2022-10-18T04:00:41.676Z,7.60
2022-10-18T04:03:10.259Z,8.00
2022-10-18T04:05:38.331Z,7.70
2022-10-18T04:08:06.402Z,8.10
2022-10-18T04:10:34.371Z,7.90
2022-10-18T04:13:02.341Z,7.80
2022-10-18T04:15:30.412Z,7.30
2022-10-18T04:17:58.674Z,7.40
2022-10-18T04:20:27.528Z,7.50
2022-10-18T04:22:57.697Z,7.40
2022-10-18T04:25:26.076Z,8.20
2022-10-18T04:27:54.045Z,7.30
2022-10-18T04:30:22.014Z,8.00
2022-10-18T04:32:49.982Z,7.90
2022-10-18T04:35:18.159Z,8.20
2022-10-18T04:37:46.126Z,7.20
2022-10-18T04:40:14.094Z,7.70
2022-10-18T04:42:42.063Z,7.70
2022-10-18T04:45:11.239Z,9.00
2022-10-18T04:47:39.436Z,7.90
2022-10-18T04:50:08.127Z,9.20
2022-10-18T04:52:36.162Z,8.40
2022-10-18T04:55:04.820Z,7.80
2022-10-18T04:57:33.046Z,7.50
2022-10-18T05:00:01.347Z,7.90
2022-10-18T05:02:29.712Z,8.40
2022-10-18T05:04:57.984Z,8.20
2022-10-18T05:07:26.157Z,7.80
2022-10-18T05:09:54.227Z,8.50
2022-10-18T05:12:22.606Z,7.90
2022-10-18T05:14:50.677Z,8.40
2022-10-18T05:17:18.670Z,8.40
2022-10-18T05:19:46.671Z,8.00
2022-10-18T05:22:15.000Z,8.00
2022-10-18T05:24:42.963Z,7.90
2022-10-18T05:27:11.342Z,8.50
2022-10-18T05:29:39.312Z,8.10
2022-10-18T05:32:07.279Z,8.70
2022-10-18T05:34:35.454Z,9.70
2022-10-18T05:37:03.525Z,9.10
2022-10-18T05:39:31.598Z,8.20
2022-10-18T05:42:00.282Z,9.40
2022-10-18T05:44:28.363Z,9.50
2022-10-18T05:46:56.424Z,7.60
2022-10-18T05:49:24.598Z,9.20
2022-10-18T05:51:52.773Z,10.10
2022-10-18T05:54:21.253Z,8.80
2022-10-18T05:56:49.222Z,9.70
2022-10-18T05:59:17.200Z,10.00
2022-10-18T06:01:45.776Z,9.20
2022-10-18T06:04:13.743Z,8.60
2022-10-18T06:06:41.818Z,9.00
2022-10-18T06:09:10.195Z,9.10
2022-10-18T06:11:38.274Z,8.90
2022-10-18T06:14:07.976Z,8.00
2022-10-18T06:19:05.346Z,9.40
2022-10-18T06:21:33.417Z,9.50
2022-10-18T06:24:01.489Z,8.60
2022-10-18T06:26:29.663Z,8.30
2022-10-18T06:28:57.796Z,9.70
2022-10-18T06:31:26.113Z,8.90
2022-10-18T06:33:57.098Z,9.50
2022-10-18T06:36:25.534Z,9.30
2022-10-18T06:38:54.659Z,8.30
2022-10-18T06:41:23.314Z,8.30
2022-10-18T06:43:53.715Z,8.50
2022-10-18T06:46:21.810Z,8.40
2022-10-18T06:48:49.885Z,8.60
2022-10-18T06:51:18.569Z,9.20
2022-10-18T06:53:59.104Z,9.70
2022-10-18T06:56:27.818Z,10.00
2022-10-18T06:58:55.806Z,9.40
2022-10-18T07:01:23.915Z,8.50
2022-10-18T07:03:53.643Z,8.60
2022-10-18T07:06:23.585Z,9.60
2022-10-18T07:08:55.446Z,9.30
2022-10-18T07:11:26.355Z,9.60
2022-10-18T07:14:01.008Z,9.10
2022-10-18T07:16:29.539Z,8.60
2022-10-18T07:18:57.663Z,8.90
2022-10-18T07:21:26.863Z,9.30
2022-10-18T07:23:56.775Z,9.20
2022-10-18T07:26:30.791Z,8.80
2022-10-18T07:29:02.531Z,9.30
2022-10-18T07:33:58.789Z,9.20
2022-10-18T07:36:27.224Z,8.20
2022-10-18T07:38:55.241Z,8.80
2022-10-18T07:41:23.516Z,10.20
2022-10-18T07:43:53.125Z,8.80
2022-10-18T07:46:22.526Z,8.20
2022-10-18T07:48:51.550Z,10.00
2022-10-18T07:51:22.559Z,9.80
2022-10-18T07:53:50.735Z,9.60
2022-10-18T07:56:21.951Z,9.60
2022-10-18T07:58:52.819Z,10.10
2022-10-18T08:01:22.664Z,7.70
2022-10-18T08:03:51.594Z,7.60
2022-10-18T08:06:21.292Z,7.70
2022-10-18T08:08:49.714Z,7.40
2022-10-18T08:11:21.568Z,8.20
2022-10-18T08:13:49.846Z,8.30
2022-10-18T08:16:35.738Z,8.10
2022-10-18T08:19:04.523Z,7.70
2022-10-18T08:21:32.705Z,8.40
2022-10-18T08:24:00.671Z,7.30
2022-10-18T08:26:28.634Z,8.40
2022-10-18T08:29:17.746Z,8.20
2022-10-18T08:31:44.744Z,8.10
2022-10-18T08:34:18.715Z,7.10
2022-10-18T08:36:47.851Z,7.10
2022-10-18T08:39:15.819Z,7.50
2022-10-18T08:41:54.336Z,6.80
2022-10-18T08:44:30.606Z,6.90
2022-10-18T08:47:11.679Z,7.30
2022-10-18T08:49:51.039Z,7.20
2022-10-18T08:52:45.244Z,6.90
2022-10-18T08:55:27.806Z,6.50
2022-10-18T08:57:58.290Z,7.10
2022-10-18T09:00:34.703Z,7.10
2022-10-18T09:03:40.928Z,7.00
2022-10-18T09:06:25.526Z,7.10
2022-10-18T09:09:08.931Z,6.80
2022-10-18T09:12:32.895Z,7.20
2022-10-18T09:15:20.569Z,6.40
2022-10-18T09:17:54.480Z,7.20
2022-10-18T09:20:46.613Z,7.00
2022-10-18T09:23:23.872Z,6.20
2022-10-18T09:26:00.857Z,6.70
2022-10-18T09:28:58.261Z,7.00
2022-10-18T09:31:32.558Z,6.30
2022-10-18T09:34:08.616Z,5.90
2022-10-18T09:36:39.113Z,6.60
2022-10-18T09:39:12.543Z,6.40
2022-10-18T09:41:49.827Z,7.10
2022-10-18T09:44:25.682Z,7.00
2022-10-18T09:47:02.768Z,6.40
2022-10-18T09:49:40.564Z,6.50
2022-10-18T09:52:33.899Z,6.80
2022-10-18T09:55:13.673Z,6.50
2022-10-18T09:57:46.968Z,6.80
2022-10-18T10:00:48.833Z,6.30
2022-10-18T10:03:17.107Z,6.60
2022-10-18T10:05:45.920Z,6.30
2022-10-18T10:08:13.967Z,5.90
2022-10-18T10:10:47.574Z,5.70
2022-10-18T10:13:24.547Z,4.90
2022-10-18T10:16:00.400Z,6.10
2022-10-18T10:18:34.514Z,5.90
2022-10-18T10:21:15.184Z,5.40
2022-10-18T10:23:54.106Z,5.60
2022-10-18T10:26:23.920Z,5.90
2022-10-18T10:28:52.468Z,6.00
2022-10-18T10:31:32.139Z,5.80
2022-10-18T10:34:03.189Z,4.90
2022-10-18T10:36:32.789Z,5.40
2022-10-18T10:39:12.420Z,5.70
2022-10-18T10:41:41.523Z,5.60
2022-10-18T10:44:34.588Z,5.50
2022-10-18T10:47:03.169Z,5.80
2022-10-18T10:49:46.193Z,5.40
2022-10-18T10:52:27.243Z,5.40
2022-10-18T10:55:23.595Z,5.30
2022-10-18T10:57:56.419Z,5.40
2022-10-18T11:00:39.922Z,5.20
2022-10-18T11:03:28.396Z,5.80
2022-10-18T11:06:01.086Z,5.80
2022-10-18T11:08:31.221Z,5.80
2022-10-18T11:11:16.918Z,5.60
2022-10-18T11:13:57.057Z,6.00
2022-10-18T11:17:22.321Z,6.00
2022-10-18T11:19:56.228Z,5.90
2022-10-18T11:22:29.143Z,6.60
2022-10-18T11:24:57.491Z,6.00
2022-10-18T11:27:38.157Z,6.20
2022-10-18T11:30:21.284Z,7.10
2022-10-18T11:33:10.346Z,7.30
2022-10-18T11:36:03.928Z,6.50
2022-10-18T11:38:47.346Z,7.20
2022-10-18T11:41:27.296Z,7.10
2022-10-18T11:44:03.669Z,6.70
2022-10-18T11:46:57.026Z,7.10
2022-10-18T11:49:45.168Z,6.70
2022-10-18T11:52:33.207Z,6.20
2022-10-18T11:55:16.230Z,6.20
2022-10-18T11:57:57.036Z,5.80
2022-10-18T12:00:39.508Z,5.60
2022-10-18T12:03:36.252Z,5.30
2022-10-18T12:06:12.486Z,5.60
2022-10-18T12:08:46.631Z,5.60
2022-10-18T12:11:30.980Z,5.80
2022-10-18T12:14:21.683Z,5.40
2022-10-18T12:16:53.606Z,4.80
2022-10-18T12:19:30.114Z,5.40
2022-10-18T12:22:11.191Z,4.80
2022-10-18T12:24:39.895Z,5.90
2022-10-18T12:27:13.580Z,4.90
2022-10-18T12:29:53.837Z,5.20
2022-10-18T12:32:27.745Z,5.50
2022-10-18T12:35:04.929Z,4.80
2022-10-18T12:37:57.996Z,5.10
2022-10-18T12:40:32.714Z,5.50
2022-10-18T12:43:09.471Z,5.00
2022-10-18T12:45:51.083Z,5.50
2022-10-18T12:48:42.661Z,5.40
2022-10-18T12:51:17.838Z,5.00
2022-10-18T12:53:52.875Z,5.10
2022-10-18T12:56:29.862Z,5.00
2022-10-18T12:59:16.166Z,5.60
2022-10-18T13:01:53.415Z,4.30
2022-10-18T13:04:27.568Z,4.60
2022-10-18T13:07:03.127Z,4.80
2022-10-18T13:09:39.260Z,4.60
2022-10-18T13:12:10.204Z,4.50
2022-10-18T13:15:25.594Z,4.50
2022-10-18T13:18:19.764Z,4.60
2022-10-18T13:21:03.297Z,4.70
2022-10-18T13:23:43.251Z,4.80
2022-10-18T13:26:32.208Z,4.40
2022-10-18T13:29:09.374Z,4.80
2022-10-18T13:31:37.771Z,5.20
2022-10-18T13:34:28.252Z,4.50
2022-10-18T13:37:06.683Z,4.80
2022-10-18T13:39:35.292Z,4.30
2022-10-18T13:42:03.234Z,4.90
2022-10-18T13:44:40.369Z,4.90
2022-10-18T13:47:32.740Z,4.50
2022-10-18T13:50:03.633Z,4.80
2022-10-18T13:52:44.160Z,4.60
2022-10-18T13:55:36.296Z,5.00
2022-10-18T13:59:05.871Z,4.20
2022-10-18T14:01:54.004Z,4.50
2022-10-18T14:05:16.583Z,4.00
2022-10-18T14:07:51.396Z,4.40
2022-10-18T14:11:03.274Z,5.00
2022-10-18T14:13:43.792Z,4.00
2022-10-18T14:16:50.365Z,4.50
2022-10-18T14:19:39.610Z,4.80
2022-10-18T14:22:11.903Z,4.50
2022-10-18T14:24:45.818Z,4.60
2022-10-18T14:27:34.601Z,4.60
2022-10-18T14:30:11.241Z,5.10
2022-10-18T14:32:48.117Z,5.60
2022-10-18T14:35:38.388Z,8.80
2022-10-18T14:38:13.965Z,5.90
2022-10-18T14:40:42.028Z,5.10
2022-10-18T14:43:14.095Z,5.00
2022-10-18T14:45:43.189Z,5.20
2022-10-18T14:48:22.083Z,6.20
2022-10-18T14:50:59.504Z,9.10
2022-10-18T14:53:39.454Z,12.10
2022-10-18T14:56:08.378Z,10.90
2022-10-18T14:58:38.262Z,10.40
2022-10-18T15:01:06.811Z,10.20
2022-10-18T15:03:36.141Z,7.90
2022-10-18T15:06:06.020Z,8.00
2022-10-18T15:08:40.581Z,7.10
2022-10-18T15:11:13.353Z,7.20
2022-10-18T15:13:53.722Z,6.80
2022-10-18T15:16:26.271Z,7.00
2022-10-18T15:19:07.990Z,5.90
2022-10-18T15:21:36.472Z,6.80
2022-10-18T15:24:26.454Z,6.10
2022-10-18T15:26:56.779Z,6.10
2022-10-18T15:29:25.142Z,6.40
2022-10-18T15:31:53.127Z,6.00
2022-10-18T15:34:27.937Z,6.30
2022-10-18T15:36:57.031Z,6.00
2022-10-18T15:39:27.989Z,7.80
2022-10-18T15:41:58.626Z,9.60
2022-10-18T15:44:34.890Z,7.50
2022-10-18T15:47:12.172Z,6.30
2022-10-18T15:49:46.694Z,6.40
2022-10-18T15:52:38.165Z,6.70
2022-10-18T15:55:45.412Z,8.10
2022-10-18T15:58:46.118Z,8.10
2022-10-18T16:01:23.467Z,9.50
2022-10-18T16:03:52.117Z,8.10
2022-10-18T16:06:20.290Z,9.40
2022-10-18T16:08:51.433Z,12.20
2022-10-18T16:11:25.036Z,12.30
2022-10-18T16:13:56.529Z,12.40
2022-10-18T16:16:29.470Z,14.20
2022-10-18T16:18:58.053Z,13.50
2022-10-18T16:21:32.066Z,15.50
2022-10-18T16:24:00.240Z,14.30
2022-10-18T16:26:29.418Z,13.90
2022-10-18T16:28:58.895Z,16.50
2022-10-18T16:31:29.982Z,18.30
2022-10-18T16:33:59.384Z,23.00
2022-10-18T16:36:30.238Z,26.20
2022-10-18T16:39:01.056Z,26.20
2022-10-18T16:41:29.249Z,25.80
2022-10-18T16:43:57.235Z,24.80
2022-10-18T16:46:31.825Z,25.50
2022-10-18T16:49:00.870Z,25.70
2022-10-18T16:51:29.295Z,26.60
2022-10-18T16:53:57.473Z,23.50
2022-10-18T16:56:31.689Z,26.70
2022-10-18T16:59:00.475Z,24.10
2022-10-18T17:01:28.508Z,26.10
2022-10-18T17:03:56.619Z,25.50
2022-10-18T17:06:28.073Z,23.40
2022-10-18T17:08:57.659Z,22.40
2022-10-18T17:11:28.514Z,22.10
2022-10-18T17:13:56.592Z,23.20
2022-10-18T17:16:30.403Z,23.40
2022-10-18T17:19:02.255Z,23.70
2022-10-18T17:21:31.612Z,24.70
2022-10-18T17:24:02.388Z,27.70
2022-10-18T17:26:30.829Z,26.90
2022-10-18T17:29:05.022Z,31.40
2022-10-18T17:31:33.470Z,32.30
2022-10-18T17:34:02.430Z,20.60
2022-10-18T17:36:32.580Z,20.60
2022-10-18T17:39:00.953Z,19.00
2022-10-18T17:41:29.429Z,19.50
2022-10-18T17:43:57.506Z,19.20
2022-10-18T17:46:25.781Z,20.00
2022-10-18T17:48:54.160Z,19.00
2022-10-18T17:51:22.643Z,16.60
2022-10-18T17:53:50.610Z,16.80
2022-10-18T17:56:18.784Z,14.50
2022-10-18T17:58:51.157Z,13.70
2022-10-18T18:01:22.219Z,13.20
2022-10-18T18:03:55.901Z,13.10
2022-10-18T18:06:33.991Z,12.40
2022-10-18T18:09:08.502Z,12.70
2022-10-18T18:11:38.446Z,11.20
2022-10-18T18:14:10.105Z,11.30
2022-10-18T18:19:09.647Z,9.30
2022-10-18T18:21:39.434Z,10.60
2022-10-18T18:24:08.305Z,10.30
2022-10-18T18:26:37.318Z,10.30
2022-10-18T18:29:05.350Z,10.40
2022-10-18T18:31:39.936Z,11.10
2022-10-18T18:34:09.710Z,8.90
2022-10-18T18:36:38.718Z,9.80
2022-10-18T18:39:09.067Z,9.50
2022-10-18T18:41:38.594Z,9.60
2022-10-18T18:44:06.722Z,9.80
2022-10-18T18:46:39.706Z,8.60
2022-10-18T18:49:08.539Z,10.80
2022-10-18T18:51:40.764Z,11.00
2022-10-18T18:54:11.194Z,10.20
2022-10-18T18:56:39.262Z,10.60
2022-10-18T18:59:07.741Z,10.20
2022-10-18T19:01:37.823Z,10.40
2022-10-18T19:04:08.084Z,10.20
2022-10-18T19:06:38.920Z,10.30
2022-10-18T19:09:18.871Z,9.60
2022-10-18T19:11:48.067Z,9.90
2022-10-18T19:14:16.504Z,9.60
2022-10-18T19:16:50.037Z,8.80
2022-10-18T19:19:21.396Z,9.60
2022-10-18T19:21:52.437Z,7.30
2022-10-18T19:24:22.047Z,8.70
2022-10-18T19:26:53.086Z,8.60
2022-10-18T19:29:25.751Z,9.50
2022-10-18T19:31:56.602Z,9.40
2022-10-18T19:34:26.619Z,8.60
2022-10-18T19:36:54.894Z,9.10
2022-10-18T19:39:24.297Z,9.40
2022-10-18T19:41:58.102Z,10.40
2022-10-18T19:44:30.068Z,10.20
2022-10-18T19:46:58.957Z,10.20
2022-10-18T19:49:28.842Z,9.80
2022-10-18T19:51:57.556Z,11.90
2022-10-18T19:54:26.857Z,10.30
2022-10-18T19:56:54.927Z,11.00
2022-10-18T19:59:24.232Z,10.80
2022-10-18T20:01:52.401Z,10.50
2022-10-18T20:04:20.577Z,10.30
2022-10-18T20:06:50.161Z,10.60
2022-10-18T20:09:20.653Z,12.30
2022-10-18T20:11:49.000Z,11.70
2022-10-18T20:14:17.063Z,10.90
2022-10-18T20:16:45.133Z,12.40
2022-10-18T20:19:13.203Z,11.40
2022-10-18T20:21:41.272Z,11.60
2022-10-18T20:24:10.781Z,12.20
2022-10-18T20:26:39.709Z,12.60
2022-10-18T20:29:08.320Z,12.50
2022-10-18T20:31:39.140Z,11.00
2022-10-18T20:34:10.644Z,11.80
2022-10-18T20:36:39.226Z,10.40
2022-10-18T20:39:07.998Z,11.60
2022-10-18T20:41:38.747Z,11.60
2022-10-18T20:44:11.836Z,11.20
2022-10-18T20:46:40.415Z,11.70
2022-10-18T20:49:10.744Z,12.30
2022-10-18T20:51:38.818Z,11.50
2022-10-18T20:54:09.438Z,12.00
2022-10-18T20:56:38.969Z,12.10
2022-10-18T20:59:10.023Z,11.80
2022-10-18T21:01:39.550Z,10.80
2022-10-18T21:04:10.233Z,12.30
2022-10-18T21:06:41.957Z,12.40
2022-10-18T21:11:45.101Z,9.80
2022-10-18T21:14:15.871Z,10.40
2022-10-18T21:16:44.644Z,8.60
2022-10-18T21:19:14.328Z,7.50
2022-10-18T21:21:44.654Z,8.80
2022-10-18T21:24:14.050Z,7.50
2022-10-18T21:26:42.434Z,7.40
2022-10-18T21:29:11.785Z,3.90
2022-10-18T21:31:41.648Z,2.70
2022-10-18T21:34:15.943Z,3.40
2022-10-18T21:36:46.187Z,3.10
2022-10-18T21:39:18.006Z,2.50
2022-10-18T21:41:46.598Z,2.20
2022-10-18T21:44:15.009Z,2.80
2022-10-18T21:46:43.420Z,2.20
2022-10-18T21:49:11.447Z,2.40
2022-10-18T21:51:40.018Z,2.30
2022-10-18T21:54:12.006Z,2.40
2022-10-18T21:56:40.486Z,1.50
2022-10-18T21:59:11.117Z,1.90
2022-10-18T22:01:40.216Z,1.60
2022-10-18T22:04:19.363Z,1.80
2022-10-18T22:06:47.416Z,1.60
2022-10-18T22:09:15.795Z,1.40
2022-10-18T22:11:47.963Z,1.40
2022-10-18T22:14:16.033Z,1.60
2022-10-18T22:16:44.001Z,1.90
2022-10-18T22:19:12.278Z,1.80
2022-10-18T22:21:40.349Z,1.60
2022-10-18T22:24:09.551Z,1.40
2022-10-18T22:26:40.178Z,1.40
2022-10-18T22:29:14.702Z,2.30
2022-10-18T22:32:02.027Z,1.40
2022-10-18T22:34:30.094Z,1.00
2022-10-18T22:36:58.166Z,1.00
2022-10-18T22:39:26.136Z,1.20
2022-10-18T22:41:56.563Z,1.00
2022-10-18T22:44:27.064Z,0.80
2022-10-18T22:46:55.061Z,1.00
2022-10-18T22:49:23.135Z,1.20
2022-10-18T22:51:51.202Z,0.90
2022-10-18T22:54:19.273Z,1.30
2022-10-18T22:56:47.345Z,1.10
2022-10-18T22:59:15.422Z,0.70
2022-10-18T23:01:43.386Z,1.10
2022-10-18T23:04:11.457Z,1.20
2022-10-18T23:06:40.027Z,1.20
2022-10-18T23:09:10.882Z,1.00
2022-10-18T23:11:39.059Z,1.40
2022-10-18T23:14:07.328Z,1.40
2022-10-18T23:16:35.785Z,1.30
2022-10-18T23:19:04.400Z,1.20
2022-10-18T23:21:33.998Z,1.80
2022-10-18T23:24:01.969Z,2.20
2022-10-18T23:26:29.936Z,2.20
2022-10-18T23:28:58.061Z,1.90
2022-10-18T23:31:33.131Z,2.40
2022-10-18T23:34:03.777Z,1.90
2022-10-18T23:36:33.877Z,2.30
2022-10-18T23:39:03.594Z,2.40
2022-10-18T23:41:31.574Z,2.20
2022-10-18T23:43:59.747Z,2.60
2022-10-18T23:46:28.536Z,2.30
2022-10-18T23:48:56.505Z,2.70
2022-10-18T23:51:24.474Z,2.80
2022-10-18T23:53:52.545Z,3.00
2022-10-18T23:56:20.617Z,2.50
2022-10-18T23:58:48.586Z,2.20
